Time;durP1;ratioP1;P1;durP2;ratioP2;P2;SDS_P1;SDS_P2;PMS_P1;PMS_P2;Temp;Humidity;BMP_temperature;BMP_pressure;BME280_temperature;BME280_humidity;BME280_pressure;Samples;Min_cycle;Max_cycle;Signal;HPM_P1;HPM_P2
2022/06/08 00:00:22;;;;;;;20.48;11.18;;;;;;;13.33;100.00;101090.78;5219663;28;20013;-71
2022/06/08 00:03:00;;;;;;;20.17;11.18;;;;;;;13.35;100.00;101091.44;5206142;28;20033;-71
2022/06/08 00:05:30;;;;;;;17.05;10.25;;;;;;;13.35;100.00;101081.47;5217919;28;20028;-70
2022/06/08 00:08:01;;;;;;;18.80;10.60;;;;;;;13.41;100.00;101071.88;5218995;28;20481;-70
2022/06/08 00:10:32;;;;;;;16.77;10.23;;;;;;;13.44;100.00;101080.41;5215644;28;20035;-70
2022/06/08 00:13:04;;;;;;;19.65;10.40;;;;;;;13.46;100.00;101083.78;5226370;28;20275;-70
2022/06/08 00:15:35;;;;;;;19.50;10.65;;;;;;;13.47;100.00;101080.06;5226265;28;20029;-70
2022/06/08 00:18:06;;;;;;;17.10;11.43;;;;;;;13.46;100.00;101082.94;5212599;28;20021;-71
2022/06/08 00:20:38;;;;;;;20.23;10.98;;;;;;;13.45;100.00;101067.78;5213705;28;20459;-71
2022/06/08 00:23:09;;;;;;;15.95;9.32;;;;;;;13.45;100.00;101065.09;5218736;28;20025;-70
2022/06/08 00:25:40;;;;;;;13.45;9.30;;;;;;;13.46;100.00;101056.00;5205245;28;20036;-71
2022/06/08 00:28:10;;;;;;;15.45;9.10;;;;;;;13.42;100.00;101055.50;5221627;28;20090;-72
2022/06/08 00:30:42;;;;;;;15.88;8.30;;;;;;;13.39;100.00;101057.72;5223664;28;20032;-71
2022/06/08 00:33:13;;;;;;;19.05;8.82;;;;;;;13.39;100.00;101044.25;5213726;28;20021;-71
2022/06/08 00:35:43;;;;;;;15.10;8.85;;;;;;;13.37;100.00;101046.28;5209314;28;20438;-71
2022/06/08 00:38:14;;;;;;;15.70;8.63;;;;;;;13.36;100.00;101042.78;5205335;28;20033;-69
2022/06/08 00:41:08;;;;;;;11.30;7.18;;;;;;;13.34;100.00;101039.41;5211980;28;20020;-70
2022/06/08 00:43:39;;;;;;;13.88;8.50;;;;;;;13.29;100.00;101032.88;5225469;28;20009;-70
2022/06/08 00:46:11;;;;;;;14.05;8.48;;;;;;;13.21;100.00;101023.84;5217140;28;20499;-70
2022/06/08 00:48:48;;;;;;;13.02;8.32;;;;;;;13.19;100.00;101031.22;5205022;28;20043;-70
2022/06/08 00:51:19;;;;;;;17.45;8.88;;;;;;;13.15;100.00;101023.66;5216213;28;20027;-70
2022/06/08 00:53:55;;;;;;;13.38;6.80;;;;;;;13.08;100.00;101018.16;5207329;28;20478;-70
2022/06/08 00:56:34;;;;;;;12.23;6.38;;;;;;;13.05;100.00;101021.22;5218512;28;20437;-72
2022/06/08 00:59:08;;;;;;;14.52;7.13;;;;;;;12.98;100.00;101014.03;5225502;28;20023;-72
2022/06/08 01:01:39;;;;;;;11.80;6.13;;;;;;;12.90;100.00;101014.91;5222680;28;20490;-72
2022/06/08 01:04:13;;;;;;;14.10;7.60;;;;;;;12.86;100.00;101011.75;5214920;28;20028;-73
2022/06/08 01:06:52;;;;;;;8.57;5.47;;;;;;;12.81;100.00;101002.53;5210514;28;20078;-72
2022/06/08 01:09:39;;;;;;;15.85;7.13;;;;;;;12.76;100.00;101010.28;5212749;28;20020;-72
2022/06/08 01:12:17;;;;;;;9.88;5.32;;;;;;;12.76;100.00;101000.38;5204855;28;20029;-72
2022/06/08 01:14:48;;;;;;;13.77;6.50;;;;;;;12.72;100.00;100992.81;5203927;28;20036;-73
2022/06/08 01:17:20;;;;;;;10.45;5.45;;;;;;;12.70;100.00;100995.66;5216192;28;20390;-72
2022/06/08 01:19:51;;;;;;;10.13;5.45;;;;;;;12.67;100.00;100986.09;5211871;28;20502;-72
2022/06/08 01:22:21;;;;;;;11.68;5.70;;;;;;;12.66;100.00;100975.53;5212505;28;20087;-71
2022/06/08 01:24:52;;;;;;;10.95;5.13;;;;;;;12.63;100.00;100974.00;5224443;28;20081;-72
2022/06/08 01:27:57;;;;;;;14.45;5.78;;;;;;;12.59;100.00;100971.84;5219248;28;20032;-71
2022/06/08 01:30:51;;;;;;;13.02;5.90;;;;;;;12.57;100.00;100963.13;5224839;28;20127;-71
2022/06/08 01:33:30;;;;;;;11.70;5.38;;;;;;;12.57;100.00;100958.56;5224796;28;20031;-71
2022/06/08 01:36:30;;;;;;;11.48;5.32;;;;;;;12.56;100.00;100961.44;5205421;28;20048;-71
2022/06/08 01:39:27;;;;;;;12.65;6.13;;;;;;;12.54;100.00;100953.53;5217224;28;20396;-70
2022/06/08 01:42:18;;;;;;;11.82;6.20;;;;;;;12.58;100.00;100948.63;5211119;28;20108;-71
2022/06/08 01:48:23;;;;;;;11.18;4.85;;;;;;;12.64;100.00;100951.44;5215474;28;20053;-71
2022/06/08 01:50:57;;;;;;;12.23;5.05;;;;;;;12.67;100.00;100937.66;5212175;28;20398;-70
2022/06/08 01:53:58;;;;;;;13.50;5.78;;;;;;;12.69;100.00;100932.91;5211586;28;20371;-71
2022/06/08 01:56:52;;;;;;;13.50;5.05;;;;;;;12.67;100.00;100924.19;5210119;28;20029;-71
2022/06/08 01:59:46;;;;;;;14.57;5.15;;;;;;;12.66;100.00;100927.91;5204149;28;20434;-70
2022/06/08 02:02:54;;;;;;;11.93;4.70;;;;;;;12.65;100.00;100915.47;5204205;28;20047;-71
2022/06/08 02:05:44;;;;;;;9.68;5.10;;;;;;;12.65;100.00;100912.78;5204470;28;20387;-71
2022/06/08 02:08:26;;;;;;;9.77;5.47;;;;;;;12.65;100.00;100906.53;5217370;28;20025;-71
2022/06/08 02:11:17;;;;;;;15.48;6.75;;;;;;;12.69;100.00;100906.00;5216793;28;20085;-72
2022/06/08 02:13:54;;;;;;;20.70;7.10;;;;;;;12.73;100.00;100897.59;5224552;28;20025;-70
2022/06/08 02:16:42;;;;;;;16.45;6.28;;;;;;;12.73;100.00;100890.34;5210548;28;20109;-70
2022/06/08 02:19:20;;;;;;;12.00;6.18;;;;;;;12.71;100.00;100889.69;5224262;28;20063;-72
2022/06/08 02:22:27;;;;;;;13.43;5.72;;;;;;;12.69;100.00;100889.84;5215879;28;20503;-71
2022/06/08 02:25:09;;;;;;;14.70;6.43;;;;;;;12.66;100.00;100882.16;5211334;28;20021;-73
2022/06/08 02:27:46;;;;;;;11.15;5.85;;;;;;;12.67;100.00;100885.69;5219087;28;20028;-71
2022/06/08 02:30:20;;;;;;;12.45;6.70;;;;;;;12.68;100.00;100876.59;5212389;28;20379;-71
2022/06/08 02:35:52;;;;;;;10.18;4.97;;;;;;;12.66;100.00;100873.25;5220308;28;20480;-71
2022/06/08 02:38:30;;;;;;;11.68;6.25;;;;;;;12.66;100.00;100868.69;5214878;28;20036;-71
2022/06/08 02:41:06;;;;;;;11.05;6.03;;;;;;;12.67;100.00;100862.28;5213883;28;20706;-71
2022/06/08 02:43:58;;;;;;;15.93;7.18;;;;;;;12.70;100.00;100851.19;5223178;28;20028;-71
2022/06/08 02:46:48;;;;;;;17.80;6.82;;;;;;;12.76;100.00;100851.47;5203175;28;20558;-71
2022/06/08 02:49:18;;;;;;;15.10;7.65;;;;;;;12.79;100.00;100853.78;5203945;28;20045;-71
2022/06/08 02:51:51;;;;;;;15.45;6.82;;;;;;;12.79;100.00;100848.41;5215651;28;20068;-70
2022/06/08 02:54:24;;;;;;;14.90;7.57;;;;;;;12.77;100.00;100848.59;5203821;28;20114;-71
2022/06/08 02:57:32;;;;;;;9.38;6.20;;;;;;;12.81;100.00;100847.22;5206958;28;20490;-71
2022/06/08 03:00:26;;;;;;;16.40;6.75;;;;;;;12.82;100.00;100850.75;5223960;28;20491;-70
2022/06/08 03:03:04;;;;;;;16.30;7.15;;;;;;;12.82;100.00;100842.66;5225154;28;20060;-70
2022/06/08 03:05:41;;;;;;;9.57;5.60;;;;;;;12.81;100.00;100846.38;5232703;28;20043;-70
2022/06/08 03:08:19;;;;;;;8.73;5.10;;;;;;;12.83;100.00;100844.34;5214731;28;20080;-70
2022/06/08 03:10:52;;;;;;;29.45;6.75;;;;;;;12.77;100.00;100839.69;5227867;28;20036;-70
2022/06/08 03:13:26;;;;;;;10.57;5.82;;;;;;;12.74;100.00;100848.09;5207851;28;20060;-70
2022/06/08 03:16:00;;;;;;;8.30;5.15;;;;;;;12.72;100.00;100837.53;5206723;28;20030;-70
2022/06/08 03:18:31;;;;;;;12.97;5.80;;;;;;;12.73;100.00;100849.13;5207118;28;20030;-70
2022/06/08 03:21:03;;;;;;;15.52;7.80;;;;;;;12.79;100.00;100841.16;5233783;28;20123;-70
2022/06/08 03:23:34;;;;;;;13.32;6.55;;;;;;;12.86;100.00;100841.28;5218719;28;20048;-70
2022/06/08 03:26:05;;;;;;;11.57;6.63;;;;;;;12.91;100.00;100841.59;5206178;28;20025;-70
2022/06/08 03:28:36;;;;;;;14.40;7.32;;;;;;;12.95;100.00;100840.19;5226867;28;20031;-70
2022/06/08 03:31:06;;;;;;;12.07;6.07;;;;;;;12.97;100.00;100827.38;5227449;28;20056;-70
2022/06/08 03:33:37;;;;;;;14.98;7.00;;;;;;;12.99;100.00;100828.03;5227667;28;20104;-70
2022/06/08 03:36:07;;;;;;;12.43;6.57;;;;;;;13.04;100.00;100833.69;5214995;28;20552;-69
2022/06/08 03:38:38;;;;;;;11.27;5.90;;;;;;;13.10;100.00;100821.34;5214719;28;20061;-70
2022/06/08 03:41:10;;;;;;;13.10;6.82;;;;;;;13.13;100.00;100826.38;5210008;28;20029;-70
2022/06/08 03:43:40;;;;;;;13.32;6.63;;;;;;;13.18;100.00;100823.97;5209304;28;20053;-70
2022/06/08 03:46:11;;;;;;;15.70;6.85;;;;;;;13.23;100.00;100812.69;5225720;28;20115;-70
2022/06/08 03:48:45;;;;;;;14.55;7.07;;;;;;;13.26;100.00;100815.03;5213445;28;20478;-70
2022/06/08 03:51:16;;;;;;;15.15;6.43;;;;;;;13.29;100.00;100812.78;5215479;28;20156;-70
2022/06/08 03:53:54;;;;;;;10.82;6.45;;;;;;;13.30;100.00;100822.53;5225082;28;20021;-70
2022/06/08 03:56:27;;;;;;;8.88;5.88;;;;;;;13.32;100.00;100817.81;5213425;28;20036;-70
2022/06/08 03:58:58;;;;;;;10.18;6.20;;;;;;;13.35;100.00;100816.59;5226727;28;20017;-70
2022/06/08 04:01:29;;;;;;;8.20;5.53;;;;;;;13.39;100.00;100807.94;5224393;28;20021;-69
2022/06/08 04:03:59;;;;;;;8.70;5.05;;;;;;;13.43;100.00;100811.13;5206255;28;20018;-70
2022/06/08 04:06:30;;;;;;;8.73;5.13;;;;;;;13.49;100.00;100810.38;5217864;28;20025;-70
2022/06/08 04:09:01;;;;;;;12.63;5.70;;;;;;;13.57;100.00;100804.91;5206186;28;20048;-70
2022/06/08 04:11:32;;;;;;;13.82;5.30;;;;;;;13.63;100.00;100803.31;5223535;28;20029;-70
2022/06/08 04:14:02;;;;;;;9.48;4.75;;;;;;;13.68;100.00;100801.72;5214334;28;20056;-70
2022/06/08 04:16:33;;;;;;;10.23;4.95;;;;;;;13.75;100.00;100801.78;5211650;28;20441;-70
2022/06/08 04:19:04;;;;;;;11.85;4.90;;;;;;;13.80;100.00;100790.44;5213635;28;20104;-70
2022/06/08 04:21:34;;;;;;;8.90;4.03;;;;;;;13.86;100.00;100793.25;5212670;28;20070;-70
2022/06/08 04:24:06;;;;;;;10.48;4.30;;;;;;;13.92;100.00;100799.75;5212945;28;20017;-70
2022/06/08 04:26:36;;;;;;;7.82;4.03;;;;;;;13.93;100.00;100799.53;5220556;28;20020;-70
2022/06/08 04:29:08;;;;;;;7.65;3.97;;;;;;;13.95;100.00;100800.19;5223686;28;20387;-70
2022/06/08 04:31:39;;;;;;;6.75;3.90;;;;;;;13.99;100.00;100793.38;5215381;28;20116;-70
2022/06/08 04:34:11;;;;;;;8.30;4.00;;;;;;;14.06;100.00;100792.66;5225787;28;20378;-70
2022/06/08 04:36:43;;;;;;;7.78;3.83;;;;;;;14.09;100.00;100781.47;5226123;28;20037;-70
2022/06/08 04:39:15;;;;;;;6.65;3.25;;;;;;;14.12;100.00;100781.91;5208995;28;20025;-70
2022/06/08 04:41:45;;;;;;;7.53;3.58;;;;;;;14.19;100.00;100782.81;5212799;28;20057;-70
2022/06/08 04:44:16;;;;;;;10.82;3.17;;;;;;;14.27;100.00;100779.16;5218825;28;20024;-70
2022/06/08 04:46:47;;;;;;;12.13;3.70;;;;;;;14.34;100.00;100780.06;5205612;28;20532;-70
2022/06/08 04:49:18;;;;;;;10.02;3.28;;;;;;;14.39;100.00;100784.88;5205054;28;20083;-71
2022/06/08 04:51:48;;;;;;;10.38;3.28;;;;;;;14.40;100.00;100783.84;5207388;28;20034;-70
2022/06/08 04:54:19;;;;;;;9.35;3.25;;;;;;;14.45;100.00;100781.41;5214707;28;20071;-70
2022/06/08 04:56:49;;;;;;;6.10;2.80;;;;;;;14.56;100.00;100785.47;5205226;28;20087;-70
2022/06/08 04:59:20;;;;;;;6.82;2.75;;;;;;;14.63;100.00;100770.19;5216151;28;20041;-69
2022/06/08 05:01:50;;;;;;;6.80;2.85;;;;;;;14.72;100.00;100775.25;5206976;28;20021;-69
2022/06/08 05:04:21;;;;;;;4.80;2.95;;;;;;;14.76;100.00;100771.16;5204768;28;20037;-70
2022/06/08 05:06:52;;;;;;;6.57;2.60;;;;;;;14.82;100.00;100768.69;5204818;28;20537;-70
2022/06/08 05:09:22;;;;;;;8.57;2.92;;;;;;;14.81;100.00;100765.16;5205070;28;20037;-70
2022/06/08 05:11:53;;;;;;;4.70;2.95;;;;;;;14.87;100.00;100769.78;5204670;28;20387;-70
2022/06/08 05:14:23;;;;;;;7.55;3.60;;;;;;;14.85;100.00;100762.88;5217139;28;20033;-70
2022/06/08 05:16:54;;;;;;;5.88;3.13;;;;;;;14.95;100.00;100776.88;5204579;28;20025;-69
2022/06/08 05:19:24;;;;;;;7.50;3.58;;;;;;;14.99;100.00;100768.19;5204656;28;20099;-70
2022/06/08 05:21:55;;;;;;;7.43;3.30;;;;;;;15.05;100.00;100768.44;5213935;28;20036;-70
2022/06/08 05:24:25;;;;;;;8.35;3.63;;;;;;;15.12;100.00;100758.53;5208122;28;20499;-70
2022/06/08 05:26:56;;;;;;;9.98;3.42;;;;;;;15.18;100.00;100760.44;5209991;28;20021;-70
2022/06/08 05:29:26;;;;;;;6.60;2.90;;;;;;;15.20;100.00;100759.19;5225035;28;20029;-70
2022/06/08 05:31:57;;;;;;;11.27;3.13;;;;;;;15.24;100.00;100760.44;5213250;28;20099;-70
2022/06/08 05:34:27;;;;;;;5.80;3.13;;;;;;;15.25;100.00;100751.31;5223391;28;20471;-70
2022/06/08 05:36:58;;;;;;;8.68;2.60;;;;;;;15.32;100.00;100758.66;5212247;28;20029;-70
2022/06/08 05:39:28;;;;;;;7.78;3.10;;;;;;;15.38;100.00;100750.56;5219607;28;20075;-69
2022/06/08 05:41:59;;;;;;;6.47;3.20;;;;;;;15.48;100.00;100747.50;5204063;28;20108;-70
2022/06/08 05:44:30;;;;;;;8.60;2.75;;;;;;;15.53;100.00;100750.44;5204085;28;20021;-70
2022/06/08 05:47:00;;;;;;;9.10;3.10;;;;;;;15.59;100.00;100752.31;5219557;28;20039;-70
2022/06/08 05:49:34;;;;;;;7.10;3.10;;;;;;;15.66;100.00;100746.97;5215421;28;20108;-70
2022/06/08 05:52:07;;;;;;;8.60;3.00;;;;;;;15.75;100.00;100740.34;5221441;28;20112;-71
2022/06/08 05:54:37;;;;;;;7.53;3.10;;;;;;;15.83;100.00;100742.06;5213309;28;20502;-69
2022/06/08 05:57:08;;;;;;;13.18;3.03;;;;;;;15.96;100.00;100742.06;5222773;28;20032;-70
2022/06/08 05:59:39;;;;;;;9.52;2.67;;;;;;;16.01;100.00;100743.16;5212175;28;20025;-70
2022/06/08 06:02:12;;;;;;;8.98;2.63;;;;;;;16.12;100.00;100736.31;5223717;28;20086;-70
2022/06/08 06:04:43;;;;;;;11.45;2.95;;;;;;;16.37;100.00;100735.72;5224407;28;20036;-70
2022/06/08 06:07:14;;;;;;;16.02;3.15;;;;;;;16.47;100.00;100728.84;5224663;28;20116;-70
2022/06/08 06:09:44;;;;;;;7.85;2.88;;;;;;;16.57;100.00;100726.56;5221772;28;20453;-70
2022/06/08 06:12:15;;;;;;;8.45;2.53;;;;;;;16.73;100.00;100719.91;5203827;28;20488;-70
2022/06/08 06:14:46;;;;;;;8.32;2.22;;;;;;;16.75;100.00;100723.22;5220055;28;20025;-70
2022/06/08 06:17:16;;;;;;;5.78;2.38;;;;;;;16.78;100.00;100722.81;5223730;28;20470;-70
2022/06/08 06:19:47;;;;;;;8.05;2.63;;;;;;;16.86;100.00;100729.06;5219001;28;20561;-70
2022/06/08 06:22:17;;;;;;;12.02;2.53;;;;;;;16.90;100.00;100725.72;5216618;28;20025;-70
2022/06/08 06:24:48;;;;;;;11.15;2.53;;;;;;;17.00;100.00;100730.69;5224047;28;20079;-70
2022/06/08 06:27:18;;;;;;;11.45;2.83;;;;;;;16.98;100.00;100730.09;5217990;28;20454;-71
2022/06/08 06:29:51;;;;;;;7.32;2.45;;;;;;;16.81;100.00;100725.09;5213043;28;20032;-70
2022/06/08 06:32:26;;;;;;;9.57;2.78;;;;;;;16.96;100.00;100730.28;5226778;28;20103;-70
2022/06/08 06:34:58;;;;;;;8.70;2.50;;;;;;;16.99;100.00;100729.88;5217774;28;20025;-70
2022/06/08 06:37:29;;;;;;;6.40;2.67;;;;;;;17.04;100.00;100719.22;5223918;28;20017;-71
2022/06/08 06:40:00;;;;;;;6.93;2.38;;;;;;;17.14;100.00;100716.09;5214741;28;20037;-70
2022/06/08 06:42:33;;;;;;;6.03;2.60;;;;;;;17.12;100.00;100714.63;5222325;28;20044;-71
2022/06/08 06:45:05;;;;;;;5.57;2.63;;;;;;;17.26;100.00;100716.25;5207432;28;20497;-70
2022/06/08 06:47:35;;;;;;;6.70;2.63;;;;;;;17.37;100.00;100715.59;5207722;28;20398;-70
2022/06/08 06:50:08;;;;;;;10.77;2.58;;;;;;;17.37;100.00;100722.88;5208630;28;20021;-70
2022/06/08 06:52:38;;;;;;;21.13;2.90;;;;;;;17.17;100.00;100710.25;5219457;28;20084;-70
2022/06/08 06:55:18;;;;;;;6.90;2.33;;;;;;;17.24;100.00;100713.75;5210019;28;20021;-71
2022/06/08 06:57:49;;;;;;;10.20;2.78;;;;;;;17.18;100.00;100714.63;5216480;28;20033;-70
2022/06/08 07:00:20;;;;;;;13.35;2.60;;;;;;;17.22;100.00;100712.28;5207443;28;20517;-71
2022/06/08 07:02:50;;;;;;;8.52;2.50;;;;;;;17.26;100.00;100714.38;5219859;28;20487;-70
2022/06/08 07:05:24;;;;;;;5.80;2.53;;;;;;;17.26;100.00;100716.25;5220695;28;20537;-70
2022/06/08 07:07:54;;;;;;;10.73;2.70;;;;;;;17.24;100.00;100715.63;5221631;28;20560;-70
2022/06/08 07:10:25;;;;;;;11.85;3.30;;;;;;;17.21;100.00;100711.47;5219325;28;20029;-70
2022/06/08 07:12:56;;;;;;;9.38;3.65;;;;;;;17.28;100.00;100715.00;5207141;28;20025;-70
2022/06/08 07:15:27;;;;;;;12.55;3.10;;;;;;;17.21;100.00;100724.19;5206538;28;20053;-70
2022/06/08 07:17:58;;;;;;;10.63;2.65;;;;;;;17.21;100.00;100718.75;5210986;28;20024;-70
2022/06/08 07:20:28;;;;;;;9.38;3.03;;;;;;;17.20;100.00;100711.69;5216217;28;20535;-70
2022/06/08 07:22:58;;;;;;;7.95;2.85;;;;;;;17.10;100.00;100722.97;5206959;28;20441;-70
2022/06/08 07:25:30;;;;;;;13.00;3.08;;;;;;;17.13;100.00;100719.00;5206499;28;20027;-70
2022/06/08 07:28:01;;;;;;;14.35;2.97;;;;;;;17.09;100.00;100722.13;5221253;28;20363;-70
2022/06/08 07:30:31;;;;;;;12.90;3.03;;;;;;;17.04;100.00;100729.25;5226230;28;20028;-70
2022/06/08 07:33:03;;;;;;;10.57;2.92;;;;;;;16.97;100.00;100718.44;5227364;28;20053;-70
2022/06/08 07:35:33;;;;;;;8.02;2.88;;;;;;;16.76;100.00;100719.47;5210401;28;20025;-70
2022/06/08 07:38:04;;;;;;;7.32;2.70;;;;;;;16.87;100.00;100711.75;5215489;28;20033;-71
2022/06/08 07:40:34;;;;;;;13.50;3.42;;;;;;;16.95;100.00;100715.06;5213051;28;20026;-70
2022/06/08 07:43:05;;;;;;;9.93;2.85;;;;;;;17.01;100.00;100708.81;5217270;28;20064;-70
2022/06/08 07:45:36;;;;;;;10.00;3.13;;;;;;;17.05;100.00;100717.34;5227179;28;20105;-70
2022/06/08 07:50:56;;;;;;;13.10;3.08;;;;;;;16.88;100.00;100719.69;5214282;28;20390;-72
2022/06/08 07:53:27;;;;;;;11.77;3.00;;;;;;;16.99;100.00;100719.03;5225231;28;20031;-70
2022/06/08 07:55:57;;;;;;;8.25;2.95;;;;;;;16.92;100.00;100720.94;5206159;28;20022;-70
2022/06/08 07:58:28;;;;;;;9.10;2.92;;;;;;;16.80;100.00;100718.00;5219858;28;20117;-71
2022/06/08 08:00:59;;;;;;;14.77;3.42;;;;;;;16.91;100.00;100721.13;5216745;28;20483;-70
2022/06/08 08:03:29;;;;;;;13.00;2.88;;;;;;;16.73;100.00;100719.06;5208555;28;20053;-71
2022/06/08 08:06:00;;;;;;;9.90;2.90;;;;;;;16.89;100.00;100723.22;5206006;28;20021;-70
2022/06/08 08:08:31;;;;;;;9.10;2.88;;;;;;;16.72;100.00;100731.78;5205900;28;20518;-71
2022/06/08 08:11:01;;;;;;;12.98;3.58;;;;;;;16.72;100.00;100725.53;5219116;28;20025;-71
2022/06/08 08:13:32;;;;;;;10.48;2.95;;;;;;;16.72;100.00;100723.66;5226139;28;20508;-71
2022/06/08 08:16:04;;;;;;;13.75;3.75;;;;;;;16.80;100.00;100725.31;5211828;28;20022;-71
2022/06/08 08:18:35;;;;;;;15.30;3.67;;;;;;;16.75;100.00;100717.81;5214748;28;20486;-71
2022/06/08 08:21:05;;;;;;;21.98;3.60;;;;;;;16.74;100.00;100726.16;5210304;28;20040;-71
2022/06/08 08:23:36;;;;;;;12.43;3.17;;;;;;;16.73;100.00;100719.06;5205862;28;20079;-71
2022/06/08 08:26:06;;;;;;;11.38;3.20;;;;;;;16.69;100.00;100725.91;5218628;28;20035;-71
2022/06/08 08:28:37;;;;;;;14.85;3.58;;;;;;;16.79;100.00;100724.47;5213922;28;20026;-72
2022/06/08 08:31:07;;;;;;;19.13;3.00;;;;;;;16.79;100.00;100716.34;5205522;28;20095;-71
2022/06/08 08:33:38;;;;;;;15.05;3.50;;;;;;;16.84;100.00;100715.72;5218686;28;20024;-71
2022/06/08 08:36:08;;;;;;;11.32;3.53;;;;;;;16.91;100.00;100721.13;5212427;28;20103;-71
2022/06/08 08:38:39;;;;;;;13.40;3.28;;;;;;;16.90;100.00;100720.28;5225263;28;20079;-71
2022/06/08 08:44:05;;;;;;;12.88;3.35;;;;;;;16.92;100.00;100711.94;5217697;28;20035;-71
2022/06/08 08:46:54;;;;;;;12.25;4.78;;;;;;;16.91;100.00;100711.13;5205207;28;20103;-72
2022/06/08 08:49:27;;;;;;;12.95;3.75;;;;;;;16.93;100.00;100706.34;5205297;28;20406;-71
2022/06/08 08:52:02;;;;;;;17.73;3.20;;;;;;;17.00;100.00;100711.72;5204505;28;20026;-73
2022/06/08 08:54:38;;;;;;;17.00;3.53;;;;;;;16.94;100.00;100712.59;5216351;28;20040;-71
2022/06/08 08:57:28;;;;;;;18.73;3.67;;;;;;;16.81;100.00;100710.72;5225606;28;20031;-72
2022/06/08 09:00:08;;;;;;;11.35;3.47;;;;;;;16.82;100.00;100715.94;5225553;28;20191;-71
2022/06/08 09:05:28;;;;;;;10.52;3.40;;;;;;;16.87;100.00;100709.03;5211917;28;20021;-72
2022/06/08 09:07:59;;;;;;;10.40;3.75;;;;;;;16.67;100.00;100707.19;5225170;28;20090;-71
2022/06/08 09:10:29;;;;;;;19.20;4.15;;;;;;;16.64;100.00;100712.16;5217148;28;20037;-71
2022/06/08 09:13:03;;;;;;;18.73;4.13;;;;;;;16.63;100.00;100711.34;5220334;28;20013;-71
2022/06/08 09:15:56;;;;;;;15.93;4.20;;;;;;;16.53;100.00;100713.63;5215283;28;20037;-71
2022/06/08 09:18:33;;;;;;;12.15;4.10;;;;;;;16.45;100.00;100714.66;5204351;28;20033;-72
2022/06/08 09:21:41;;;;;;;11.52;4.53;;;;;;;16.39;100.00;100709.25;5204730;28;20025;-71
2022/06/08 09:24:30;;;;;;;19.90;3.88;;;;;;;16.16;100.00;100704.22;5204314;28;20029;-71
2022/06/08 09:27:22;;;;;;;15.40;4.30;;;;;;;16.04;100.00;100702.13;5210965;28;20053;-71
2022/06/08 09:29:56;;;;;;;13.02;4.22;;;;;;;16.07;100.00;100703.63;5212737;28;20035;-72
2022/06/08 09:32:45;;;;;;;15.50;4.68;;;;;;;16.03;100.00;100707.75;5211407;28;20036;-72
2022/06/08 09:35:19;;;;;;;12.57;4.07;;;;;;;15.91;100.00;100702.09;5212105;28;20025;-72
2022/06/08 09:37:52;;;;;;;13.60;4.17;;;;;;;15.86;100.00;100703.75;5224646;28;20029;-72
2022/06/08 09:43:43;;;;;;;15.27;3.67;;;;;;;15.65;100.00;100696.63;5224776;28;20037;-71
2022/06/08 09:46:18;;;;;;;8.50;2.67;;;;;;;15.36;100.00;100687.78;5224915;28;20430;-71
2022/06/08 09:52:24;;;;;;;6.95;2.85;;;;;;;15.21;100.00;100687.91;5224652;28;20025;-71
2022/06/08 09:55:08;;;;;;;9.70;3.28;;;;;;;15.24;100.00;100697.47;5224524;28;20029;-71
2022/06/08 09:58:00;;;;;;;12.85;3.72;;;;;;;15.07;100.00;100699.66;5224555;28;20021;-71
2022/06/08 10:00:39;;;;;;;17.38;3.67;;;;;;;14.99;100.00;100705.22;5224672;28;20442;-72
2022/06/08 10:03:28;;;;;;;11.70;3.25;;;;;;;14.95;100.00;100709.34;5222914;28;20017;-72
2022/06/08 10:06:21;;;;;;;11.50;3.40;;;;;;;14.96;100.00;100702.91;5214922;28;20036;-71
2022/06/08 10:09:07;;;;;;;11.70;3.80;;;;;;;15.00;100.00;100696.91;5212221;28;20114;-71
2022/06/08 10:11:50;;;;;;;14.25;3.20;;;;;;;14.91;100.00;100698.13;5224417;28;20025;-71
2022/06/08 10:14:42;;;;;;;13.05;4.07;;;;;;;14.85;100.00;100690.78;5210550;28;20426;-72
2022/06/08 10:17:32;;;;;;;9.50;2.80;;;;;;;14.82;100.00;100693.91;5203829;28;20376;-71
2022/06/08 10:20:03;;;;;;;9.13;2.70;;;;;;;14.65;100.00;100690.66;5203840;28;20201;-71
2022/06/08 10:22:42;;;;;;;7.95;2.83;;;;;;;14.67;100.00;100685.09;5217768;28;20071;-71
2022/06/08 10:25:15;;;;;;;10.82;2.95;;;;;;;14.72;100.00;100691.56;5215176;28;20072;-71
2022/06/08 10:27:52;;;;;;;13.15;4.60;;;;;;;14.80;100.00;100692.41;5215372;28;20029;-72
2022/06/08 10:30:51;;;;;;;9.52;3.03;;;;;;;14.94;100.00;100691.47;5211784;28;20033;-71
2022/06/08 10:33:31;;;;;;;12.15;3.65;;;;;;;14.95;100.00;100693.13;5213915;28;20025;-71
2022/06/08 10:36:03;;;;;;;10.27;2.92;;;;;;;14.91;100.00;100692.72;5218020;28;20043;-72
2022/06/08 10:38:37;;;;;;;12.32;3.60;;;;;;;14.89;100.00;100680.44;5216776;28;20032;-71
2022/06/08 10:44:51;;;;;;;13.68;3.75;;;;;;;14.81;100.00;100685.97;5216831;28;20622;-71
2022/06/08 10:47:42;;;;;;;16.58;3.90;;;;;;;14.83;100.00;100679.38;5222358;28;20389;-71
2022/06/08 10:50:27;;;;;;;9.30;4.10;;;;;;;14.87;100.00;100679.81;5208284;28;20046;-72
2022/06/08 10:56:26;;;;;;;15.75;3.92;;;;;;;14.83;100.00;100675.84;5203021;28;20038;-71
2022/06/08 10:59:24;;;;;;;10.82;3.72;;;;;;;14.83;100.00;100676.66;5210994;28;20025;-71
2022/06/08 11:02:23;;;;;;;11.85;3.97;;;;;;;14.88;100.00;100668.81;5205266;28;20026;-71
2022/06/08 11:05:31;;;;;;;10.90;4.00;;;;;;;14.96;100.00;100681.28;5219202;28;20043;-71
2022/06/08 11:08:01;;;;;;;13.50;4.13;;;;;;;15.00;100.00;100672.59;5208459;28;20025;-71
2022/06/08 11:10:42;;;;;;;10.13;4.38;;;;;;;15.01;100.00;100662.66;5203177;28;20479;-71
2022/06/08 11:13:23;;;;;;;14.82;4.13;;;;;;;15.03;100.00;100660.56;5203749;28;20384;-71
2022/06/08 11:15:53;;;;;;;14.10;4.00;;;;;;;15.03;100.00;100660.56;5215660;28;20017;-71
2022/06/08 11:19:01;;;;;;;10.38;4.32;;;;;;;15.06;100.00;100662.88;5206924;28;20059;-71
2022/06/08 11:21:50;;;;;;;9.48;3.55;;;;;;;15.04;100.00;100656.84;5206725;28;20026;-71
2022/06/08 11:24:38;;;;;;;11.45;4.68;;;;;;;15.19;100.00;100649.44;5209804;28;20025;-71
2022/06/08 11:27:09;;;;;;;10.90;4.88;;;;;;;15.28;100.00;100652.78;5222008;28;20048;-71
2022/06/08 11:29:40;;;;;;;11.60;4.30;;;;;;;15.25;100.00;100651.31;5220456;28;20117;-71
2022/06/08 11:32:44;;;;;;;12.52;4.35;;;;;;;15.33;100.00;100647.63;5206938;28;20112;-71
2022/06/08 11:35:22;;;;;;;16.20;5.10;;;;;;;15.29;100.00;100649.06;5214039;28;20387;-71
2022/06/08 11:38:16;;;;;;;8.95;4.30;;;;;;;15.32;100.00;100647.81;5206092;28;20120;-71
2022/06/08 11:40:46;;;;;;;8.00;3.85;;;;;;;15.22;100.00;100638.22;5216585;28;20014;-72
2022/06/08 11:43:36;;;;;;;9.15;3.83;;;;;;;15.29;100.00;100638.25;5206660;28;20497;-71
2022/06/08 11:46:19;;;;;;;11.45;3.88;;;;;;;15.29;100.00;100632.84;5205968;28;20056;-71
2022/06/08 11:48:51;;;;;;;8.93;3.70;;;;;;;15.21;100.00;100641.09;5206100;28;20062;-71
2022/06/08 11:51:41;;;;;;;9.93;3.95;;;;;;;15.37;100.00;100635.38;5218494;28;20028;-71
2022/06/08 11:54:32;;;;;;;10.13;3.40;;;;;;;15.53;100.00;100632.28;5214501;28;20090;-71
2022/06/08 11:57:12;;;;;;;7.60;3.17;;;;;;;15.50;100.00;100634.56;5208271;28;20029;-71
2022/06/08 11:59:45;;;;;;;5.60;3.10;;;;;;;15.58;100.00;100636.25;5206352;28;20108;-71
2022/06/08 12:02:35;;;;;;;9.32;3.38;;;;;;;15.66;100.00;100638.78;5214145;28;20469;-71
2022/06/08 12:05:07;;;;;;;6.18;2.90;;;;;;;15.68;100.00;100631.31;5225412;28;20029;-71
2022/06/08 12:07:45;;;;;;;8.13;3.00;;;;;;;15.61;100.00;100638.53;5226692;28;20032;-71
2022/06/08 12:10:20;;;;;;;8.30;3.25;;;;;;;15.59;100.00;100641.47;5205461;28;20032;-71
2022/06/08 12:12:53;;;;;;;5.75;2.55;;;;;;;15.65;100.00;100631.72;5219397;28;20047;-71
2022/06/08 12:15:25;;;;;;;5.55;2.75;;;;;;;15.83;100.00;100644.66;5214273;28;20533;-72
2022/06/08 12:17:55;;;;;;;4.85;2.30;;;;;;;15.95;100.00;100635.72;5212205;28;20055;-71
2022/06/08 12:20:31;;;;;;;5.47;1.95;;;;;;;15.96;100.00;100631.97;5226764;28;20112;-71